Time,TemperatureF,DewpointF,PressureIn,WindDirection,WindDirectionDegrees,WindSpeedMPH,WindSpeedGustMPH,Humidity,HourlyPrecipIn,Conditions,Clouds,dailyrainin,SolarRadiationWatts/m^2,SoftwareType,DateUTC
2013-09-21 00:01:00,68.3,67.7,29.75,SW,229,2.3,2.9,98,0.16,RA,,0.00,0.0,WeatherDisplay:10.37,2013-09-21 04:01:00,
2013-09-21 00:02:00,68.3,67.7,29.75,SW,229,3.5,3.5,98,0.16,BKN,,0.00,0.0,WeatherDisplay:10.37,2013-09-21 04:02:00,
2013-09-21 00:07:00,68.2,67.6,29.75,SW,229,3.5,3.5,98,0.16,BKN,,0.02,0.0,WeatherDisplay:10.37,2013-09-21 04:07:00,
2013-09-21 00:12:00,68.2,67.6,29.75,SW,229,3.5,3.5,98,0.16,BKN,,0.02,0.0,WeatherDisplay:10.37,2013-09-21 04:12:00,
2013-09-21 00:17:00,68.2,67.6,29.75,SW,229,3.5,3.5,98,0.16,BKN,,0.03,0.0,WeatherDisplay:10.37,2013-09-21 04:17:00,
2013-09-21 00:22:00,68.1,67.5,29.75,SW,229,3.5,3.5,98,0.13,BKN,,0.03,0.0,WeatherDisplay:10.37,2013-09-21 04:22:00,
2013-09-21 00:27:00,68.2,67.6,29.75,SW,229,4.0,4.0,98,0.13,BKN,,0.04,0.0,WeatherDisplay:10.37,2013-09-21 04:27:00,
2013-09-21 00:32:00,68.2,67.6,29.75,SW,229,5.8,5.8,98,0.12,BKN,,0.05,0.0,WeatherDisplay:10.37,2013-09-21 04:32:00,
2013-09-21 00:37:00,68.2,67.6,29.75,SW,229,3.5,3.5,98,0.12,BKN,,0.06,0.0,WeatherDisplay:10.37,2013-09-21 04:37:00,
2013-09-21 00:42:00,68.2,67.6,29.75,SW,229,3.5,3.5,98,0.12,BKN,,0.08,0.0,WeatherDisplay:10.37,2013-09-21 04:42:00,
2013-09-21 00:47:00,68.2,67.6,29.74,SW,229,4.0,4.0,98,0.14,BKN,,0.10,0.0,WeatherDisplay:10.37,2013-09-21 04:47:00,
2013-09-21 00:52:00,68.2,67.6,29.74,West,270,6.9,6.9,98,0.12,BKN,,0.11,0.0,WeatherDisplay:10.37,2013-09-21 04:52:00,
2013-09-21 00:57:00,68.1,67.5,29.74,West,266,4.0,4.0,98,0.13,BKN,,0.13,0.0,WeatherDisplay:10.37,2013-09-21 04:57:00,
2013-09-21 01:02:00,68.0,67.4,29.74,WSW,242,4.6,4.6,98,0.15,BKN,,0.15,0.0,WeatherDisplay:10.37,2013-09-21 05:02:00,
2013-09-21 01:07:00,68.0,67.4,29.74,SW,220,4.0,4.0,98,0.17,RA,,0.18,0.0,WeatherDisplay:10.37,2013-09-21 05:07:00,
2013-09-21 01:12:00,67.9,67.3,29.74,WSW,243,8.1,8.1,98,0.19,RA,,0.21,0.0,WeatherDisplay:10.37,2013-09-21 05:12:00,
2013-09-21 01:17:00,67.8,67.2,29.74,WSW,243,0.0,0.0,98,0.20,BKN,,0.23,0.0,WeatherDisplay:10.37,2013-09-21 05:17:00,
2013-09-21 01:22:00,67.7,67.1,29.74,WSW,243,2.3,2.3,98,0.22,BKN,,0.25,0.0,WeatherDisplay:10.37,2013-09-21 05:22:00,
2013-09-21 01:27:00,67.7,67.1,29.74,WSW,243,3.5,3.5,98,0.23,RA,,0.27,0.0,WeatherDisplay:10.37,2013-09-21 05:27:00,
2013-09-21 01:32:00,67.7,67.1,29.73,SW,227,11.5,11.5,98,0.23,BKN,,0.28,0.0,WeatherDisplay:10.37,2013-09-21 05:32:00,
2013-09-21 01:37:00,67.6,67.0,29.73,West,272,9.2,9.2,98,0.23,BKN,,0.29,0.0,WeatherDisplay:10.37,2013-09-21 05:37:00,
2013-09-21 01:42:00,67.4,66.8,29.73,WSW,243,3.5,3.5,98,0.23,BKN,,0.31,0.0,WeatherDisplay:10.37,2013-09-21 05:42:00,
2013-09-21 01:47:00,67.3,66.7,29.73,WSW,251,4.0,4.0,98,0.22,BKN,,0.32,0.0,WeatherDisplay:10.37,2013-09-21 05:47:00,
2013-09-21 01:52:00,67.2,66.6,29.73,WSW,256,4.0,4.0,98,0.22,BKN,,0.33,0.0,WeatherDisplay:10.37,2013-09-21 05:52:00,
2013-09-21 01:57:00,67.1,66.5,29.73,West,277,5.8,5.8,98,0.20,BKN,,0.33,0.0,WeatherDisplay:10.37,2013-09-21 05:57:00,
2013-09-21 02:02:00,67.1,66.5,29.73,West,273,11.5,11.5,98,0.18,BKN,,0.33,0.0,WeatherDisplay:10.37,2013-09-21 06:02:00,
2013-09-21 02:07:00,67.0,66.4,29.74,WSW,241,4.6,4.6,98,0.16,BKN,,0.34,0.0,WeatherDisplay:10.37,2013-09-21 06:07:00,
2013-09-21 02:12:00,67.0,66.4,29.74,West,271,6.0,6.0,98,0.13,BKN,,0.34,0.0,WeatherDisplay:10.37,2013-09-21 06:12:00,
2013-09-21 02:17:00,66.9,66.3,29.73,WNW,295,7.0,7.0,98,0.12,BKN,,0.35,0.0,WeatherDisplay:10.37,2013-09-21 06:17:00,
2013-09-21 02:22:00,66.8,66.2,29.73,West,271,3.5,3.5,98,0.11,BKN,,0.36,0.0,WeatherDisplay:10.37,2013-09-21 06:22:00,
2013-09-21 02:27:00,66.7,66.1,29.73,West,275,3.5,3.5,98,0.10,BKN,,0.37,0.0,WeatherDisplay:10.37,2013-09-21 06:27:00,
2013-09-21 02:32:00,66.6,66.0,29.73,WNW,283,6.9,6.9,98,0.09,BKN,,0.37,0.0,WeatherDisplay:10.37,2013-09-21 06:32:00,
2013-09-21 02:37:00,66.5,65.9,29.73,WNW,283,5.8,5.8,98,0.09,BKN,,0.38,0.0,WeatherDisplay:10.37,2013-09-21 06:37:00,
2013-09-21 02:42:00,66.5,65.9,29.73,WNW,283,3.5,3.5,98,0.08,BKN,,0.39,0.0,WeatherDisplay:10.37,2013-09-21 06:42:00,
2013-09-21 02:47:00,66.5,65.9,29.72,WNW,283,3.5,3.5,98,0.07,BKN,,0.39,0.0,WeatherDisplay:10.37,2013-09-21 06:47:00,
2013-09-21 02:52:00,66.5,65.9,29.73,WNW,283,3.5,3.5,98,0.07,BKN,,0.40,0.0,WeatherDisplay:10.37,2013-09-21 06:52:00,
2013-09-21 02:57:00,66.5,65.9,29.72,WNW,283,3.5,3.5,98,0.07,BKN,,0.40,0.0,WeatherDisplay:10.37,2013-09-21 06:57:00,
2013-09-21 03:02:00,66.5,65.9,29.72,WNW,283,3.5,3.5,98,0.08,BKN,,0.41,0.0,WeatherDisplay:10.37,2013-09-21 07:02:00,
2013-09-21 03:07:00,66.5,65.9,29.72,WNW,282,4.0,4.0,98,0.07,BKN,,0.41,0.0,WeatherDisplay:10.37,2013-09-21 07:07:00,
2013-09-21 03:12:00,66.5,65.9,29.72,WNW,282,3.5,3.5,98,0.07,BKN,,0.41,0.0,WeatherDisplay:10.37,2013-09-21 07:12:00,
2013-09-21 03:17:00,66.6,66.0,29.72,WNW,283,2.3,2.3,98,0.07,BKN,,0.42,0.0,WeatherDisplay:10.37,2013-09-21 07:17:00,
2013-09-21 03:22:00,66.6,66.0,29.71,WNW,283,2.3,2.3,98,0.06,BKN,,0.42,0.0,WeatherDisplay:10.37,2013-09-21 07:22:00,
2013-09-21 03:27:00,66.6,66.0,29.71,WNW,283,3.5,3.5,98,0.06,BKN,,0.43,0.0,WeatherDisplay:10.37,2013-09-21 07:27:00,
2013-09-21 03:32:00,66.7,66.4,29.71,WNW,283,3.5,3.5,99,0.06,BKN,,0.43,0.0,WeatherDisplay:10.37,2013-09-21 07:32:00,
2013-09-21 03:37:00,66.7,66.4,29.71,WNW,283,3.5,3.5,99,0.05,BKN,,0.43,0.0,WeatherDisplay:10.37,2013-09-21 07:37:00,
2013-09-21 03:42:00,66.7,66.4,29.71,WNW,283,3.5,3.5,99,0.04,BKN,,0.43,0.0,WeatherDisplay:10.37,2013-09-21 07:42:00,
2013-09-21 03:47:00,66.6,66.3,29.71,WNW,283,6.0,6.0,99,0.04,BKN,,0.43,0.0,WeatherDisplay:10.37,2013-09-21 07:47:00,
2013-09-21 03:52:00,66.6,66.0,29.71,WNW,283,3.5,3.5,98,0.03,BKN,,0.43,0.0,WeatherDisplay:10.37,2013-09-21 07:52:00,
2013-09-21 03:57:00,66.5,65.9,29.71,WNW,283,3.5,3.5,98,0.03,BKN,,0.43,0.0,WeatherDisplay:10.37,2013-09-21 07:57:00,
2013-09-21 04:02:00,66.5,65.9,29.70,WNW,283,3.5,3.5,98,0.02,BKN,,0.43,0.0,WeatherDisplay:10.37,2013-09-21 08:02:00,
2013-09-21 04:07:00,66.4,65.8,29.70,WNW,282,1.2,1.2,98,0.02,BKN,,0.43,0.0,WeatherDisplay:10.37,2013-09-21 08:07:00,
2013-09-21 04:12:00,66.4,65.8,29.70,WSW,240,4.6,4.6,98,0.03,BKN,,0.44,0.0,WeatherDisplay:10.37,2013-09-21 08:12:00,
2013-09-21 04:17:00,66.3,65.7,29.70,West,275,6.0,6.0,98,0.02,BKN,,0.44,0.0,WeatherDisplay:10.37,2013-09-21 08:17:00,
2013-09-21 04:22:00,66.3,66.0,29.70,West,263,3.5,3.5,99,0.02,BKN,,0.44,0.0,WeatherDisplay:10.37,2013-09-21 08:22:00,
2013-09-21 04:27:00,66.2,65.9,29.70,West,263,3.5,3.5,99,0.01,BKN,,0.44,0.0,WeatherDisplay:10.37,2013-09-21 08:27:00,
2013-09-21 04:32:00,66.2,65.9,29.70,West,263,3.5,3.5,99,0.02,BKN,,0.45,0.0,WeatherDisplay:10.37,2013-09-21 08:32:00,
2013-09-21 04:37:00,66.2,65.9,29.70,West,263,3.0,3.0,99,0.02,BKN,,0.45,0.0,WeatherDisplay:10.37,2013-09-21 08:37:00,
2013-09-21 04:42:00,66.2,65.9,29.70,West,264,5.8,5.8,99,0.02,BKN,,0.45,0.0,WeatherDisplay:10.37,2013-09-21 08:42:00,
2013-09-21 04:47:00,66.2,65.9,29.69,West,264,3.5,3.5,99,0.02,BKN,,0.46,0.0,WeatherDisplay:10.37,2013-09-21 08:47:00,
2013-09-21 04:52:00,66.2,65.9,29.69,West,264,1.2,0.0,99,0.03,BKN,,0.46,0.0,WeatherDisplay:10.37,2013-09-21 08:52:00,
2013-09-21 04:57:00,66.1,65.8,29.69,West,264,3.5,3.5,99,0.04,RA,,0.47,0.0,WeatherDisplay:10.37,2013-09-21 08:57:00,
2013-09-21 05:02:00,66.0,65.7,29.69,West,264,2.3,2.3,99,0.04,BKN,,0.47,0.0,WeatherDisplay:10.37,2013-09-21 09:02:00,
2013-09-21 05:07:00,66.0,65.7,29.69,West,264,2.3,2.3,99,0.04,BKN,,0.47,0.0,WeatherDisplay:10.37,2013-09-21 09:07:00,
2013-09-21 05:12:00,65.9,65.3,29.68,West,265,3.5,3.5,98,0.04,BKN,,0.48,0.0,WeatherDisplay:10.37,2013-09-21 09:12:00,
2013-09-21 05:17:00,65.9,65.3,29.68,West,265,3.5,3.5,98,0.04,BKN,,0.48,0.0,WeatherDisplay:10.37,2013-09-21 09:17:00,
2013-09-21 05:22:00,65.9,65.6,29.68,West,265,2.3,2.3,99,0.05,BKN,,0.49,0.0,WeatherDisplay:10.37,2013-09-21 09:22:00,
2013-09-21 05:27:00,65.9,65.6,29.68,West,265,2.3,2.3,99,0.05,BKN,,0.49,0.0,WeatherDisplay:10.37,2013-09-21 09:27:00,
2013-09-21 05:33:00,65.8,65.5,29.67,West,265,5.8,5.8,99,0.04,BKN,,0.49,0.0,WeatherDisplay:10.37,2013-09-21 09:33:00,
2013-09-21 05:38:00,65.7,65.1,29.67,West,271,3.5,3.5,98,0.04,BKN,,0.49,0.0,WeatherDisplay:10.37,2013-09-21 09:38:00,
2013-09-21 05:43:00,65.6,65.3,29.67,WNW,300,4.6,4.6,99,0.05,BKN,,0.50,0.0,WeatherDisplay:10.37,2013-09-21 09:43:00,
2013-09-21 05:48:00,65.5,65.2,29.68,West,281,3.5,4.1,99,0.05,BKN,,0.50,0.0,WeatherDisplay:10.37,2013-09-21 09:48:00,
2013-09-21 05:53:00,65.5,65.2,29.68,NW,309,5.0,5.0,99,0.04,BKN,,0.50,0.0,WeatherDisplay:10.37,2013-09-21 09:53:00,
2013-09-21 05:58:00,65.4,65.1,29.68,WNW,296,3.5,3.5,99,0.03,BKN,,0.50,0.0,WeatherDisplay:10.37,2013-09-21 09:58:00,
2013-09-21 06:03:00,65.4,65.1,29.68,WNW,301,3.5,3.5,99,0.04,BKN,,0.51,0.0,WeatherDisplay:10.37,2013-09-21 10:03:00,
2013-09-21 06:08:00,65.3,64.7,29.67,WNW,301,3.5,3.5,98,0.04,BKN,,0.51,0.0,WeatherDisplay:10.37,2013-09-21 10:08:00,
2013-09-21 06:13:00,65.2,64.6,29.67,WNW,301,2.3,2.3,98,0.03,BKN,,0.51,0.0,WeatherDisplay:10.37,2013-09-21 10:13:00,
2013-09-21 06:18:00,65.2,64.6,29.67,WNW,301,1.2,1.2,98,0.03,BKN,,0.51,0.0,WeatherDisplay:10.37,2013-09-21 10:18:00,
2013-09-21 06:23:00,65.1,64.5,29.67,WNW,301,0.0,0.0,98,0.03,BKN,,0.52,0.0,WeatherDisplay:10.37,2013-09-21 10:23:00,
2013-09-21 06:28:00,65.0,64.7,29.66,NE,51,3.5,3.5,99,0.03,BKN,,0.52,0.0,WeatherDisplay:10.37,2013-09-21 10:28:00,
2013-09-21 06:33:00,64.7,64.1,29.66,NNE,26,2.3,2.3,98,0.03,BKN,,0.52,0.0,WeatherDisplay:10.37,2013-09-21 10:33:00,
2013-09-21 06:38:00,64.2,63.6,29.66,NNE,26,3.5,3.5,98,0.03,BKN,,0.52,0.0,WeatherDisplay:10.37,2013-09-21 10:38:00,
2013-09-21 06:43:00,63.9,63.3,29.65,NNE,26,2.3,2.3,98,0.02,BKN,,0.52,0.0,WeatherDisplay:10.37,2013-09-21 10:43:00,
2013-09-21 06:48:00,63.8,63.2,29.66,NNE,26,2.3,2.3,98,0.02,BKN,,0.52,0.0,WeatherDisplay:10.37,2013-09-21 10:48:00,
2013-09-21 06:53:00,63.6,63.0,29.67,WNW,284,5.8,5.8,98,0.02,BKN,,0.52,0.0,WeatherDisplay:10.37,2013-09-21 10:53:00,
2013-09-21 06:58:00,63.5,62.9,29.67,WNW,284,5.8,5.8,98,0.02,BKN,,0.52,0.0,WeatherDisplay:10.37,2013-09-21 10:58:00,
2013-09-21 07:03:00,63.5,63.2,29.68,WNW,290,10.4,10.4,99,0.01,BKN,,0.52,0.0,WeatherDisplay:10.37,2013-09-21 11:03:00,
2013-09-21 07:08:00,63.1,62.5,29.67,NW,317,11.5,11.5,98,0.02,BKN,,0.53,0.0,WeatherDisplay:10.37,2013-09-21 11:08:00,
2013-09-21 07:13:00,62.5,61.9,29.68,WSW,257,10.4,10.4,98,0.02,BKN,,0.53,0.0,WeatherDisplay:10.37,2013-09-21 11:13:00,
2013-09-21 07:18:00,62.3,61.7,29.67,NNW,328,6.0,6.0,98,0.02,BKN,,0.53,0.0,WeatherDisplay:10.37,2013-09-21 11:18:00,
2013-09-21 07:23:00,62.1,61.5,29.68,NW,308,6.9,6.9,98,0.01,BKN,,0.53,0.0,WeatherDisplay:10.37,2013-09-21 11:23:00,
2013-09-21 07:28:00,62.0,61.4,29.69,NW,324,6.9,6.9,98,0.01,BKN,,0.53,0.0,WeatherDisplay:10.37,2013-09-21 11:28:00,
2013-09-21 07:33:00,61.9,61.3,29.68,NNW,341,5.8,5.8,98,0.01,BKN,,0.53,0.0,WeatherDisplay:10.37,2013-09-21 11:33:00,
2013-09-21 07:38:00,61.9,61.3,29.69,NNW,331,3.5,3.5,98,0.01,BKN,,0.53,0.0,WeatherDisplay:10.37,2013-09-21 11:38:00,
2013-09-21 07:43:00,61.9,61.3,29.68,NW,325,3.5,3.5,98,0.01,BKN,,0.53,0.0,WeatherDisplay:10.37,2013-09-21 11:43:00,
2013-09-21 07:49:00,61.9,61.3,29.69,NW,318,3.5,3.5,98,0.01,BKN,,0.53,0.0,WeatherDisplay:10.37,2013-09-21 11:49:00,
2013-09-21 07:54:00,62.0,61.4,29.68,NNW,336,3.5,3.5,98,0.01,BKN,,0.53,5.0,WeatherDisplay:10.37,2013-09-21 11:54:00,
2013-09-21 07:59:00,62.0,61.4,29.69,NNW,329,4.0,4.0,98,0.01,BKN,,0.53,5.0,WeatherDisplay:10.37,2013-09-21 11:59:00,
2013-09-21 08:04:00,62.0,61.4,29.69,WNW,297,3.5,3.5,98,0.01,BKN,,0.53,0.0,WeatherDisplay:10.37,2013-09-21 12:04:00,
2013-09-21 08:09:00,62.1,61.5,29.69,NW,309,4.6,4.6,98,0.00,BKN,,0.53,0.0,WeatherDisplay:10.37,2013-09-21 12:09:00,
2013-09-21 08:14:00,62.0,61.4,29.70,WNW,296,8.0,8.0,98,0.00,BKN,,0.53,0.0,WeatherDisplay:10.37,2013-09-21 12:14:00,
2013-09-21 08:19:00,62.0,61.4,29.70,WNW,300,3.5,3.8,98,0.00,BKN,,0.53,0.0,WeatherDisplay:10.37,2013-09-21 12:19:00,
2013-09-21 08:24:00,61.9,61.3,29.70,West,265,6.0,6.2,98,0.00,BKN,,0.53,7.0,WeatherDisplay:10.37,2013-09-21 12:24:00,
2013-09-21 08:29:00,61.8,61.2,29.70,WNW,293,5.0,5.0,98,0.00,BKN,,0.53,7.0,WeatherDisplay:10.37,2013-09-21 12:29:00,
2013-09-21 08:34:00,61.7,61.1,29.70,WNW,296,4.0,4.0,98,0.00,BKN,,0.53,5.0,WeatherDisplay:10.37,2013-09-21 12:34:00,
2013-09-21 08:39:00,61.7,61.1,29.70,West,275,4.6,4.6,98,0.00,BKN,,0.53,9.0,WeatherDisplay:10.37,2013-09-21 12:39:00,
2013-09-21 08:44:00,61.6,61.0,29.70,WNW,284,6.9,6.9,98,0.00,BKN,,0.53,12.0,WeatherDisplay:10.37,2013-09-21 12:44:00,
2013-09-21 08:49:00,61.4,60.8,29.71,WNW,293,6.9,6.9,98,0.00,BKN,,0.53,12.0,WeatherDisplay:10.37,2013-09-21 12:49:00,
2013-09-21 08:54:00,61.3,60.7,29.70,WNW,293,6.9,6.9,98,0.00,BKN,,0.53,11.0,WeatherDisplay:10.37,2013-09-21 12:54:00,
2013-09-21 08:59:00,61.2,60.6,29.71,NW,309,8.1,8.1,98,0.00,BKN,,0.53,7.0,WeatherDisplay:10.37,2013-09-21 12:59:00,
2013-09-21 09:04:00,60.9,60.3,29.71,West,271,11.5,11.5,98,0.00,BKN,,0.53,14.0,WeatherDisplay:10.37,2013-09-21 13:04:00,
2013-09-21 09:09:00,60.5,59.9,29.71,WNW,298,9.2,9.2,98,0.00,BKN,,0.53,14.0,WeatherDisplay:10.37,2013-09-21 13:09:00,
2013-09-21 09:14:00,60.5,59.9,29.72,NNW,328,8.1,8.1,98,0.00,BKN,,0.53,19.0,WeatherDisplay:10.37,2013-09-21 13:14:00,
2013-09-21 09:19:00,60.3,59.7,29.72,WNW,298,7.0,7.0,98,0.00,BKN,,0.53,19.0,WeatherDisplay:10.37,2013-09-21 13:19:00,
2013-09-21 09:24:00,60.2,59.6,29.72,NW,315,6.9,6.9,98,0.00,BKN,,0.53,25.0,WeatherDisplay:10.37,2013-09-21 13:24:00,
2013-09-21 09:29:00,60.2,59.6,29.72,WNW,286,8.0,8.0,98,0.00,BKN,,0.53,37.0,WeatherDisplay:10.37,2013-09-21 13:29:00,
2013-09-21 09:34:00,60.1,59.5,29.72,West,281,6.0,6.0,98,0.00,BKN,,0.53,53.0,WeatherDisplay:10.37,2013-09-21 13:34:00,
2013-09-21 09:39:00,60.1,59.5,29.72,WNW,294,5.0,5.0,98,0.00,BKN,,0.53,69.0,WeatherDisplay:10.37,2013-09-21 13:39:00,
2013-09-21 09:44:00,60.0,59.4,29.72,NW,304,6.9,6.9,98,0.00,BKN,,0.53,91.0,WeatherDisplay:10.37,2013-09-21 13:44:00,
2013-09-21 09:49:00,60.1,59.5,29.73,WNW,292,8.1,8.1,98,0.00,BKN,,0.53,93.0,WeatherDisplay:10.37,2013-09-21 13:49:00,
2013-09-21 09:55:00,60.2,59.6,29.73,WNW,301,9.2,9.2,98,0.00,BKN,,0.53,107.0,WeatherDisplay:10.37,2013-09-21 13:55:00,
2013-09-21 10:00:00,60.2,59.6,29.73,WNW,286,9.0,9.0,98,0.00,BKN,,0.53,132.0,WeatherDisplay:10.37,2013-09-21 14:00:00,
2013-09-21 10:05:00,60.1,59.5,29.73,WNW,303,10.4,10.4,98,0.00,BKN,,0.53,141.0,WeatherDisplay:10.37,2013-09-21 14:05:00,
2013-09-21 10:10:00,60.2,59.6,29.73,West,278,6.9,6.9,98,0.00,BKN,,0.53,144.0,WeatherDisplay:10.37,2013-09-21 14:10:00,
2013-09-21 10:15:00,60.2,59.6,29.73,NNW,338,8.1,8.1,98,0.00,BKN,,0.53,160.0,WeatherDisplay:10.37,2013-09-21 14:15:00,
2013-09-21 10:20:00,60.2,59.6,29.74,NW,306,10.4,10.4,98,0.00,BKN,,0.53,158.0,WeatherDisplay:10.37,2013-09-21 14:20:00,
2013-09-21 10:25:00,60.3,59.7,29.74,NW,306,8.1,8.1,98,0.00,BKN,,0.53,181.0,WeatherDisplay:10.37,2013-09-21 14:25:00,
2013-09-21 10:30:00,60.4,59.8,29.74,West,274,9.0,9.0,98,0.00,BKN,,0.53,176.0,WeatherDisplay:10.37,2013-09-21 14:30:00,
2013-09-21 10:35:00,60.5,59.6,29.74,NW,325,11.5,11.5,97,0.00,BKN,,0.53,172.0,WeatherDisplay:10.37,2013-09-21 14:35:00,
2013-09-21 10:40:00,60.5,59.6,29.74,NNW,333,4.6,4.6,97,0.00,BKN,,0.53,174.0,WeatherDisplay:10.37,2013-09-21 14:40:00,
2013-09-21 10:45:00,60.7,59.8,29.74,WNW,284,8.1,8.1,97,0.00,BKN,,0.53,144.0,WeatherDisplay:10.37,2013-09-21 14:45:00,
2013-09-21 10:50:00,60.8,59.9,29.74,West,267,8.1,8.1,97,0.00,BKN,,0.53,114.0,WeatherDisplay:10.37,2013-09-21 14:50:00,
2013-09-21 10:55:00,60.9,59.8,29.74,WNW,288,6.9,6.9,96,0.00,BKN,,0.53,130.0,WeatherDisplay:10.37,2013-09-21 14:55:00,
2013-09-21 11:00:00,60.9,59.8,29.74,WNW,297,5.0,8.0,96,0.00,BKN,,0.53,128.0,WeatherDisplay:10.37,2013-09-21 15:00:00,
2013-09-21 11:05:00,60.9,59.8,29.74,WNW,296,9.2,9.2,96,0.00,BKN,,0.53,134.0,WeatherDisplay:10.37,2013-09-21 15:05:00,
2013-09-21 11:10:00,61.1,60.0,29.75,WNW,298,2.0,9.0,96,0.00,BKN,,0.53,220.0,WeatherDisplay:10.37,2013-09-21 15:10:00,
2013-09-21 11:15:00,61.3,59.9,29.74,WNW,296,5.0,9.0,95,0.00,BKN,,0.53,225.0,WeatherDisplay:10.37,2013-09-21 15:15:00,
2013-09-21 11:20:00,61.4,59.7,29.75,NW,314,9.2,9.2,94,0.00,BKN,,0.53,165.0,WeatherDisplay:10.37,2013-09-21 15:20:00,
2013-09-21 11:25:00,61.4,59.7,29.75,NW,312,3.0,12.0,94,0.00,BKN,,0.53,181.0,WeatherDisplay:10.37,2013-09-21 15:25:00,
2013-09-21 11:30:00,61.6,59.9,29.75,NNW,341,5.0,5.0,94,0.00,BKN,,0.53,190.0,WeatherDisplay:10.37,2013-09-21 15:30:00,
2013-09-21 11:35:00,61.7,59.7,29.75,NW,306,5.0,10.0,93,0.00,BKN,,0.53,169.0,WeatherDisplay:10.37,2013-09-21 15:35:00,
2013-09-21 11:40:00,61.7,59.7,29.75,WNW,297,6.0,10.0,93,0.00,BKN,,0.53,227.0,WeatherDisplay:10.37,2013-09-21 15:40:00,
2013-09-21 11:45:00,62.2,59.9,29.75,WNW,302,8.0,13.0,92,0.00,BKN,,0.53,195.0,WeatherDisplay:10.37,2013-09-21 15:45:00,
2013-09-21 11:50:00,62.6,59.6,29.75,NNE,13,9.2,9.2,90,0.00,BKN,,0.53,269.0,WeatherDisplay:10.37,2013-09-21 15:50:00,
2013-09-21 11:55:00,63.4,60.4,29.75,WNW,296,8.1,8.1,90,0.00,BKN,,0.53,209.0,WeatherDisplay:10.37,2013-09-21 15:55:00,
2013-09-21 12:00:00,63.4,59.5,29.75,NW,322,5.0,12.0,87,0.00,BKN,,0.53,183.0,WeatherDisplay:10.37,2013-09-21 16:00:00,
2013-09-21 12:05:00,63.6,59.7,29.75,NW,312,9.2,9.2,87,0.00,BKN,,0.53,139.0,WeatherDisplay:10.37,2013-09-21 16:05:00,
2013-09-21 12:10:00,63.8,59.9,29.75,NW,310,8.1,8.1,87,0.00,BKN,,0.53,387.0,WeatherDisplay:10.37,2013-09-21 16:10:00,
2013-09-21 12:15:00,64.3,59.7,29.75,NW,317,11.5,11.5,85,0.00,BKN,,0.53,193.0,WeatherDisplay:10.37,2013-09-21 16:15:00,
2013-09-21 12:20:00,64.7,59.1,29.75,WNW,298,12.7,12.7,82,0.00,BKN,,0.53,251.0,WeatherDisplay:10.37,2013-09-21 16:20:00,
2013-09-21 12:25:00,64.3,58.3,29.75,West,281,11.5,11.5,81,0.00,BKN,,0.53,220.0,WeatherDisplay:10.37,2013-09-21 16:25:00,
2013-09-21 12:30:00,64.9,59.3,29.75,NNE,12,11.5,11.5,82,0.00,BKN,,0.53,798.0,WeatherDisplay:10.37,2013-09-21 16:30:00,
2013-09-21 12:35:00,66.2,60.6,29.75,NNW,334,7.0,12.0,82,0.00,BKN,,0.53,828.0,WeatherDisplay:10.37,2013-09-21 16:35:00,
2013-09-21 12:40:00,65.7,59.7,29.75,NNW,332,11.5,11.5,81,0.00,BKN,,0.53,793.0,WeatherDisplay:10.37,2013-09-21 16:40:00,
2013-09-21 12:45:00,66.8,60.1,29.75,North,360,6.0,6.0,79,0.00,BKN,,0.53,819.0,WeatherDisplay:10.37,2013-09-21 16:45:00,
2013-09-21 12:50:00,66.6,58.8,29.75,NW,311,9.2,9.2,76,0.00,BKN,,0.53,190.0,WeatherDisplay:10.37,2013-09-21 16:50:00,
2013-09-21 12:55:00,66.6,59.9,29.75,NNW,348,4.6,4.6,79,0.00,BKN,,0.53,234.0,WeatherDisplay:10.37,2013-09-21 16:55:00,
2013-09-21 13:00:00,66.8,60.1,29.75,NW,321,5.8,5.8,79,0.00,BKN,,0.53,346.0,WeatherDisplay:10.37,2013-09-21 17:00:00,
2013-09-21 13:05:00,67.8,60.3,29.75,North,360,8.1,8.1,77,0.00,BKN,,0.53,930.0,WeatherDisplay:10.37,2013-09-21 17:05:00,
2013-09-21 13:10:00,68.1,59.5,29.75,North,350,6.9,6.9,74,0.00,BKN,,0.53,867.0,WeatherDisplay:10.37,2013-09-21 17:10:00,
2013-09-21 13:15:00,68.0,60.2,29.75,NNW,332,10.0,10.0,76,0.00,BKN,,0.53,279.0,WeatherDisplay:10.37,2013-09-21 17:15:00,
2013-09-21 13:21:00,68.7,59.7,29.75,NW,314,11.5,11.5,73,0.00,BKN,,0.53,847.0,WeatherDisplay:10.37,2013-09-21 17:21:00,
2013-09-21 13:26:00,69.2,58.6,29.75,NW,325,17.3,17.3,69,0.00,BKN,,0.53,800.0,WeatherDisplay:10.37,2013-09-21 17:26:00,
2013-09-21 13:31:00,69.4,58.8,29.75,WNW,294,10.4,10.4,69,0.00,BKN,,0.53,810.0,WeatherDisplay:10.37,2013-09-21 17:31:00,
2013-09-21 13:36:00,68.7,58.1,29.75,WNW,288,10.4,10.4,69,0.00,BKN,,0.53,807.0,WeatherDisplay:10.37,2013-09-21 17:36:00,
2013-09-21 13:41:00,69.3,58.3,29.75,NNW,331,12.7,12.7,68,0.00,BKN,,0.53,835.0,WeatherDisplay:10.37,2013-09-21 17:41:00,
2013-09-21 13:46:00,69.9,58.0,29.75,NNW,329,13.8,13.8,66,0.00,BKN,,0.53,874.0,WeatherDisplay:10.37,2013-09-21 17:46:00,
2013-09-21 13:51:00,69.6,56.9,29.74,WNW,292,13.8,13.8,64,0.00,BKN,,0.53,916.0,WeatherDisplay:10.37,2013-09-21 17:51:00,
2013-09-21 13:56:00,69.9,58.0,29.74,West,279,11.5,11.5,66,0.00,BKN,,0.53,881.0,WeatherDisplay:10.37,2013-09-21 17:56:00,
2013-09-21 14:01:00,70.6,58.7,29.74,WNW,284,14.0,14.0,66,0.00,BKN,,0.53,909.0,WeatherDisplay:10.37,2013-09-21 18:01:00,
2013-09-21 14:06:00,70.4,57.2,29.74,WNW,301,15.0,15.0,63,0.00,BKN,,0.53,916.0,WeatherDisplay:10.37,2013-09-21 18:06:00,
2013-09-21 14:11:00,71.0,57.3,29.74,NW,315,6.0,6.0,62,0.00,BKN,,0.53,904.0,WeatherDisplay:10.37,2013-09-21 18:11:00,
2013-09-21 14:16:00,70.1,56.0,29.74,WNW,287,9.2,9.2,61,0.00,BKN,,0.53,856.0,WeatherDisplay:10.37,2013-09-21 18:16:00,
2013-09-21 14:21:00,71.2,57.5,29.74,NW,306,11.5,11.5,62,0.00,BKN,,0.53,821.0,WeatherDisplay:10.37,2013-09-21 18:21:00,
2013-09-21 14:26:00,71.4,57.7,29.74,NW,314,11.5,11.5,62,0.00,BKN,,0.53,881.0,WeatherDisplay:10.37,2013-09-21 18:26:00,
2013-09-21 14:31:00,71.5,56.9,29.74,WNW,293,13.0,13.0,60,0.00,BKN,,0.53,893.0,WeatherDisplay:10.37,2013-09-21 18:31:00,
2013-09-21 14:36:00,71.8,56.2,29.74,NNW,327,11.5,11.5,58,0.00,BKN,,0.53,784.0,WeatherDisplay:10.37,2013-09-21 18:36:00,
2013-09-21 14:41:00,71.7,56.1,29.74,NNW,345,13.8,13.8,58,0.00,BKN,,0.53,833.0,WeatherDisplay:10.37,2013-09-21 18:41:00,
2013-09-21 14:46:00,71.3,54.8,29.74,WNW,300,11.5,11.5,56,0.00,BKN,,0.53,146.0,WeatherDisplay:10.37,2013-09-21 18:46:00,
2013-09-21 14:51:00,71.0,56.4,29.74,NW,309,8.1,8.1,60,0.00,BKN,,0.53,775.0,WeatherDisplay:10.37,2013-09-21 18:51:00,
2013-09-21 14:56:00,71.8,54.3,29.74,NW,316,16.1,16.1,54,0.00,BKN,,0.53,800.0,WeatherDisplay:10.37,2013-09-21 18:56:00,
2013-09-21 15:01:00,71.9,54.9,29.74,North,355,11.5,11.5,55,0.00,BKN,,0.53,179.0,WeatherDisplay:10.37,2013-09-21 19:01:00,
2013-09-21 15:06:00,71.1,55.6,29.74,WNW,302,9.2,9.2,58,0.00,BKN,,0.53,220.0,WeatherDisplay:10.37,2013-09-21 19:06:00,
2013-09-21 15:11:00,70.8,54.8,29.74,West,271,10.4,10.4,57,0.00,BKN,,0.53,118.0,WeatherDisplay:10.37,2013-09-21 19:11:00,
2013-09-21 15:17:00,70.5,55.5,29.74,NW,318,12.7,12.7,59,0.00,BKN,,0.53,826.0,WeatherDisplay:10.37,2013-09-21 19:17:00,
2013-09-21 15:22:00,72.2,55.1,29.74,West,273,11.5,11.5,55,0.00,BKN,,0.53,290.0,WeatherDisplay:10.37,2013-09-21 19:22:00,
2013-09-21 15:27:00,72.2,57.1,29.74,WNW,286,8.1,8.1,59,0.00,BKN,,0.53,756.0,WeatherDisplay:10.37,2013-09-21 19:27:00,
2013-09-21 15:32:00,73.0,56.4,29.74,West,269,8.1,8.1,56,0.00,BKN,,0.53,715.0,WeatherDisplay:10.37,2013-09-21 19:32:00,
2013-09-21 15:37:00,73.4,57.2,29.74,WNW,298,11.5,11.5,57,0.00,BKN,,0.53,738.0,WeatherDisplay:10.37,2013-09-21 19:37:00,
2013-09-21 15:42:00,72.4,55.8,29.74,WNW,295,14.0,14.0,56,0.00,BKN,,0.53,710.0,WeatherDisplay:10.37,2013-09-21 19:42:00,
2013-09-21 15:47:00,71.8,54.3,29.74,WNW,299,10.0,10.0,54,0.00,BKN,,0.53,114.0,WeatherDisplay:10.37,2013-09-21 19:47:00,
2013-09-21 15:52:00,71.6,55.1,29.74,West,277,12.7,12.7,56,0.00,BKN,,0.53,645.0,WeatherDisplay:10.37,2013-09-21 19:52:00,
2013-09-21 15:57:00,72.1,55.5,29.74,West,275,17.3,17.3,56,0.00,BKN,,0.53,622.0,WeatherDisplay:10.37,2013-09-21 19:57:00,
2013-09-21 16:02:00,73.0,56.4,29.74,NW,326,11.0,11.0,56,0.00,BKN,,0.53,619.0,WeatherDisplay:10.37,2013-09-21 20:02:00,
2013-09-21 16:07:00,73.0,54.3,29.74,NNW,342,9.2,9.2,52,0.00,BKN,,0.53,606.0,WeatherDisplay:10.37,2013-09-21 20:07:00,
2013-09-21 16:12:00,72.9,54.8,29.74,WNW,293,9.2,9.2,53,0.00,BKN,,0.53,163.0,WeatherDisplay:10.37,2013-09-21 20:12:00,
2013-09-21 16:17:00,72.0,53.4,29.73,NW,310,11.5,11.5,52,0.00,BKN,,0.53,163.0,WeatherDisplay:10.37,2013-09-21 20:17:00,
2013-09-21 16:22:00,72.5,55.9,29.73,NW,321,5.8,5.8,56,0.00,BKN,,0.53,647.0,WeatherDisplay:10.37,2013-09-21 20:22:00,
2013-09-21 16:27:00,73.5,56.3,29.73,WNW,284,8.0,8.0,55,0.00,BKN,,0.53,624.0,WeatherDisplay:10.37,2013-09-21 20:27:00,
2013-09-21 16:32:00,72.9,54.8,29.73,WNW,292,6.9,6.9,53,0.00,BKN,,0.53,176.0,WeatherDisplay:10.37,2013-09-21 20:32:00,
2013-09-21 16:37:00,72.6,54.0,29.73,NW,319,9.2,9.2,52,0.00,BKN,,0.53,626.0,WeatherDisplay:10.37,2013-09-21 20:37:00,
2013-09-21 16:42:00,73.5,54.3,29.73,NW,321,12.7,12.7,51,0.00,BKN,,0.53,563.0,WeatherDisplay:10.37,2013-09-21 20:42:00,
2013-09-21 16:47:00,73.6,52.7,29.73,West,281,15.0,15.0,48,0.00,BKN,,0.53,577.0,WeatherDisplay:10.37,2013-09-21 20:47:00,
2013-09-21 16:52:00,73.0,52.1,29.74,West,279,11.5,11.5,48,0.00,BKN,,0.53,561.0,WeatherDisplay:10.37,2013-09-21 20:52:00,
2013-09-21 16:57:00,73.0,52.7,29.74,NNW,327,10.4,10.4,49,0.00,BKN,,0.53,570.0,WeatherDisplay:10.37,2013-09-21 20:57:00,
2013-09-21 17:02:00,72.1,53.0,29.74,NW,318,9.2,9.2,51,0.00,BKN,,0.53,137.0,WeatherDisplay:10.37,2013-09-21 21:02:00,
2013-09-21 17:07:00,71.6,55.1,29.74,NW,322,15.0,15.0,56,0.00,BKN,,0.53,104.0,WeatherDisplay:10.37,2013-09-21 21:07:00,
2013-09-21 17:12:00,70.8,54.8,29.75,WNW,290,9.2,9.2,57,0.00,BKN,,0.53,469.0,WeatherDisplay:10.37,2013-09-21 21:12:00,
2013-09-21 17:18:00,71.5,55.9,29.74,NW,326,12.7,12.7,58,0.00,BKN,,0.53,515.0,WeatherDisplay:10.37,2013-09-21 21:18:00,
2013-09-21 17:23:00,71.9,55.8,29.75,NW,319,9.2,9.2,57,0.00,BKN,,0.53,461.0,WeatherDisplay:10.37,2013-09-21 21:23:00,
2013-09-21 17:28:00,71.8,53.7,29.75,NNW,331,11.5,11.5,53,0.00,BKN,,0.53,388.0,WeatherDisplay:10.37,2013-09-21 21:28:00,
2013-09-21 17:33:00,71.7,54.2,29.75,NW,306,10.4,10.4,54,0.00,BKN,,0.53,359.0,WeatherDisplay:10.37,2013-09-21 21:33:00,
2013-09-21 17:38:00,71.9,54.3,29.75,NW,304,12.7,12.7,54,0.00,BKN,,0.53,343.0,WeatherDisplay:10.37,2013-09-21 21:38:00,
2013-09-21 17:43:00,71.6,54.6,29.75,NW,320,9.2,9.2,55,0.00,BKN,,0.53,53.0,WeatherDisplay:10.37,2013-09-21 21:43:00,
2013-09-21 17:48:00,70.7,55.2,29.75,WNW,294,12.7,12.7,58,0.00,BKN,,0.53,139.0,WeatherDisplay:10.37,2013-09-21 21:48:00,
2013-09-21 17:53:00,69.8,54.4,29.75,WNW,300,6.9,6.9,58,0.00,BKN,,0.53,58.0,WeatherDisplay:10.37,2013-09-21 21:53:00,
2013-09-21 17:58:00,69.1,54.2,29.75,NW,304,6.9,6.9,59,0.00,BKN,,0.53,58.0,WeatherDisplay:10.37,2013-09-21 21:58:00,
2013-09-21 18:03:00,68.6,53.7,29.75,NW,313,3.5,3.5,59,0.00,BKN,,0.53,40.0,WeatherDisplay:10.37,2013-09-21 22:03:00,
2013-09-21 18:08:00,68.1,53.7,29.75,NW,304,4.6,4.6,60,0.00,BKN,,0.53,54.0,WeatherDisplay:10.37,2013-09-21 22:08:00,
2013-09-21 18:13:00,67.7,53.8,29.76,WNW,299,8.1,8.1,61,0.00,BKN,,0.53,51.0,WeatherDisplay:10.37,2013-09-21 22:13:00,
2013-09-21 18:18:00,67.5,54.9,29.76,WNW,297,4.0,4.0,64,0.00,BKN,,0.53,183.0,WeatherDisplay:10.37,2013-09-21 22:18:00,
2013-09-21 18:23:00,67.9,54.8,29.76,WNW,288,6.9,6.9,63,0.00,BKN,,0.53,206.0,WeatherDisplay:10.37,2013-09-21 22:23:00,
2013-09-21 18:28:00,68.5,55.0,29.76,WNW,287,11.5,11.5,62,0.00,BKN,,0.53,181.0,WeatherDisplay:10.37,2013-09-21 22:28:00,
2013-09-21 18:33:00,69.0,55.0,29.76,WNW,285,6.9,6.9,61,0.00,BKN,,0.53,165.0,WeatherDisplay:10.37,2013-09-21 22:33:00,
2013-09-21 18:38:00,68.9,54.0,29.76,NW,309,8.1,8.1,59,0.00,BKN,,0.53,98.0,WeatherDisplay:10.37,2013-09-21 22:38:00,
2013-09-21 18:43:00,68.5,54.1,29.76,NW,309,10.4,10.4,60,0.00,BKN,,0.53,121.0,WeatherDisplay:10.37,2013-09-21 22:43:00,
2013-09-21 18:48:00,68.1,54.1,29.76,NW,306,8.1,8.1,61,0.00,BKN,,0.53,98.0,WeatherDisplay:10.37,2013-09-21 22:48:00,
2013-09-21 18:54:00,67.7,54.2,29.76,WNW,302,5.0,5.0,62,0.00,BKN,,0.53,91.0,WeatherDisplay:10.37,2013-09-21 22:54:00,
2013-09-21 18:59:00,67.7,54.2,29.76,WNW,298,3.5,3.5,62,0.00,BKN,,0.53,60.0,WeatherDisplay:10.37,2013-09-21 22:59:00,
2013-09-21 19:04:00,67.5,54.5,29.77,WNW,297,3.5,3.5,63,0.00,BKN,,0.53,35.0,WeatherDisplay:10.37,2013-09-21 23:04:00,
2013-09-21 19:09:00,67.2,54.6,29.76,WNW,297,3.5,3.5,64,0.00,BKN,,0.53,26.0,WeatherDisplay:10.37,2013-09-21 23:09:00,
2013-09-21 19:14:00,66.8,54.7,29.77,WNW,297,3.5,3.5,65,0.00,BKN,,0.53,23.0,WeatherDisplay:10.37,2013-09-21 23:14:00,
2013-09-21 19:19:00,66.5,54.8,29.77,WNW,297,1.2,1.2,66,0.00,BKN,,0.53,19.0,WeatherDisplay:10.37,2013-09-21 23:19:00,
2013-09-21 19:24:00,66.2,54.5,29.77,WNW,297,2.3,2.3,66,0.00,BKN,,0.53,11.0,WeatherDisplay:10.37,2013-09-21 23:24:00,
2013-09-21 19:29:00,65.9,54.6,29.77,WNW,297,3.5,3.5,67,0.00,BKN,,0.53,11.0,WeatherDisplay:10.37,2013-09-21 23:29:00,
2013-09-21 19:34:00,65.4,54.2,29.77,WNW,298,3.0,3.0,67,0.00,BKN,,0.53,5.0,WeatherDisplay:10.37,2013-09-21 23:34:00,
2013-09-21 19:39:00,65.1,54.7,29.77,WNW,298,1.2,1.2,69,0.00,BKN,,0.53,0.0,WeatherDisplay:10.37,2013-09-21 23:39:00,
2013-09-21 19:44:00,64.9,54.9,29.77,WNW,298,2.3,2.3,70,0.00,BKN,,0.53,0.0,WeatherDisplay:10.37,2013-09-21 23:44:00,
2013-09-21 19:49:00,64.5,54.1,29.77,WNW,298,3.5,3.5,69,0.00,BKN,,0.53,0.0,WeatherDisplay:10.37,2013-09-21 23:49:00,
2013-09-21 19:54:00,64.1,54.1,29.77,WNW,298,2.3,2.3,70,0.00,BKN,,0.53,0.0,WeatherDisplay:10.37,2013-09-21 23:54:00,
2013-09-21 19:59:00,63.9,54.7,29.77,WNW,298,0.0,0.0,72,0.00,BKN,,0.53,0.0,WeatherDisplay:10.37,2013-09-21 23:59:00,
2013-09-21 20:04:00,63.6,54.8,29.77,WNW,298,0.0,0.0,73,0.00,BKN,,0.53,0.0,WeatherDisplay:10.37,2013-09-22 00:04:00,
2013-09-21 20:09:00,63.2,54.8,29.78,WNW,298,0.0,0.0,74,0.00,BKN,,0.53,0.0,WeatherDisplay:10.37,2013-09-22 00:09:00,
2013-09-21 20:14:00,62.7,54.3,29.78,WNW,298,0.0,0.0,74,0.00,BKN,,0.53,0.0,WeatherDisplay:10.37,2013-09-22 00:14:00,
2013-09-21 20:19:00,62.3,54.3,29.78,WNW,298,0.0,0.0,75,0.00,BKN,,0.53,0.0,WeatherDisplay:10.37,2013-09-22 00:19:00,
2013-09-21 20:24:00,61.8,54.2,29.79,WNW,298,0.0,0.0,76,0.00,BKN,,0.53,0.0,WeatherDisplay:10.37,2013-09-22 00:24:00,
2013-09-21 20:29:00,61.4,54.1,29.79,WNW,298,0.0,0.0,77,0.00,BKN,,0.53,0.0,WeatherDisplay:10.37,2013-09-22 00:29:00,
2013-09-21 20:34:00,61.1,54.5,29.79,WNW,298,0.0,0.0,79,0.00,BKN,,0.53,0.0,WeatherDisplay:10.37,2013-09-22 00:34:00,
2013-09-21 20:39:00,60.7,54.5,29.79,WNW,298,0.0,0.0,80,0.00,BKN,,0.53,0.0,WeatherDisplay:10.37,2013-09-22 00:39:00,
2013-09-21 20:44:00,60.2,54.3,29.79,WNW,298,0.0,0.0,81,0.00,BKN,,0.53,0.0,WeatherDisplay:10.37,2013-09-22 00:44:00,
2013-09-21 20:49:00,59.9,54.1,29.80,WNW,298,0.0,0.0,81,0.00,BKN,,0.53,0.0,WeatherDisplay:10.37,2013-09-22 00:49:00,
2013-09-21 20:54:00,59.5,54.0,29.79,WNW,298,2.3,2.3,82,0.00,BKN,,0.53,0.0,WeatherDisplay:10.37,2013-09-22 00:54:00,
2013-09-21 20:59:00,59.2,53.7,29.80,WNW,298,2.3,2.3,82,0.00,BKN,,0.53,0.0,WeatherDisplay:10.37,2013-09-22 00:59:00,
2013-09-21 21:04:00,59.2,54.4,29.80,WNW,298,0.0,0.0,84,0.00,BKN,,0.53,0.0,WeatherDisplay:10.37,2013-09-22 01:04:00,
2013-09-21 21:09:00,59.1,54.3,29.80,WNW,298,0.0,0.0,84,0.00,BKN,,0.53,0.0,WeatherDisplay:10.37,2013-09-22 01:09:00,
2013-09-21 21:14:00,58.9,54.1,29.80,WNW,298,0.0,0.0,84,0.00,BKN,,0.53,0.0,WeatherDisplay:10.37,2013-09-22 01:14:00,
2013-09-21 21:19:00,58.6,53.8,29.80,WNW,298,0.0,0.0,84,0.00,BKN,,0.53,0.0,WeatherDisplay:10.37,2013-09-22 01:19:00,
2013-09-21 21:25:00,58.3,53.8,29.80,WNW,298,0.0,0.0,85,0.00,BKN,,0.53,0.0,WeatherDisplay:10.37,2013-09-22 01:25:00,
2013-09-21 21:30:00,58.1,53.9,29.80,WNW,298,0.0,0.0,86,0.00,BKN,,0.53,0.0,WeatherDisplay:10.37,2013-09-22 01:30:00,
2013-09-21 21:35:00,57.8,53.6,29.80,WNW,298,0.0,0.0,86,0.00,BKN,,0.53,0.0,WeatherDisplay:10.37,2013-09-22 01:35:00,
2013-09-21 21:40:00,57.7,53.9,29.80,WNW,298,0.0,0.0,87,0.00,BKN,,0.53,0.0,WeatherDisplay:10.37,2013-09-22 01:40:00,
2013-09-21 21:45:00,57.4,53.6,29.81,WNW,298,0.0,0.0,87,0.00,BKN,,0.53,0.0,WeatherDisplay:10.37,2013-09-22 01:45:00,
2013-09-21 21:50:00,57.1,53.6,29.81,WNW,298,0.0,0.0,88,0.00,BKN,,0.53,0.0,WeatherDisplay:10.37,2013-09-22 01:50:00,
2013-09-21 21:55:00,56.9,53.4,29.81,WNW,298,0.0,0.0,88,0.00,BKN,,0.53,0.0,WeatherDisplay:10.37,2013-09-22 01:55:00,
2013-09-21 22:00:00,56.7,53.5,29.81,WNW,298,0.0,0.0,89,0.00,BKN,,0.53,0.0,WeatherDisplay:10.37,2013-09-22 02:00:00,
2013-09-21 22:05:00,56.6,53.4,29.81,WNW,298,0.0,0.0,89,0.00,BKN,,0.53,0.0,WeatherDisplay:10.37,2013-09-22 02:05:00,
2013-09-21 22:10:00,56.3,53.4,29.81,WNW,298,2.3,2.3,90,0.00,BKN,,0.53,0.0,WeatherDisplay:10.37,2013-09-22 02:10:00,
2013-09-21 22:15:00,56.1,52.9,29.81,North,350,3.5,3.5,89,0.00,BKN,,0.53,0.0,WeatherDisplay:10.37,2013-09-22 02:15:00,
2013-09-21 22:20:00,56.0,52.5,29.82,NNW,333,4.6,4.6,88,0.00,BKN,,0.53,0.0,WeatherDisplay:10.37,2013-09-22 02:20:00,
2013-09-21 22:25:00,56.4,52.3,29.82,WNW,297,3.5,3.5,86,0.00,BKN,,0.53,0.0,WeatherDisplay:10.37,2013-09-22 02:25:00,
2013-09-21 22:30:00,57.4,52.3,29.83,NNW,338,6.9,6.9,83,0.00,BKN,,0.53,0.0,WeatherDisplay:10.37,2013-09-22 02:30:00,
2013-09-21 22:35:00,58.3,52.2,29.83,NNW,346,8.1,8.1,80,0.00,BKN,,0.53,0.0,WeatherDisplay:10.37,2013-09-22 02:35:00,
2013-09-21 22:40:00,58.7,51.9,29.83,NNE,24,9.2,9.2,78,0.00,BKN,,0.53,0.0,WeatherDisplay:10.37,2013-09-22 02:40:00,
2013-09-21 22:45:00,58.9,51.7,29.83,NW,324,11.5,11.5,77,0.00,BKN,,0.53,0.0,WeatherDisplay:10.37,2013-09-22 02:45:00,
2013-09-21 22:50:00,58.9,51.3,29.84,NNW,340,10.4,10.4,76,0.00,BKN,,0.53,0.0,WeatherDisplay:10.37,2013-09-22 02:50:00,
2013-09-21 22:55:00,59.0,51.1,29.84,North,355,8.1,8.1,75,0.00,BKN,,0.53,0.0,WeatherDisplay:10.37,2013-09-22 02:55:00,
2013-09-21 23:00:00,59.0,51.1,29.84,North,355,10.4,10.4,75,0.00,BKN,,0.53,0.0,WeatherDisplay:10.37,2013-09-22 03:00:00,
2013-09-21 23:05:00,58.9,51.0,29.84,NNW,345,5.8,5.8,75,0.00,BKN,,0.53,0.0,WeatherDisplay:10.37,2013-09-22 03:05:00,
2013-09-21 23:10:00,58.7,50.8,29.84,NW,321,5.8,5.8,75,0.00,BKN,,0.53,0.0,WeatherDisplay:10.37,2013-09-22 03:10:00,
2013-09-21 23:15:00,58.5,50.6,29.84,North,349,10.4,10.4,75,0.00,BKN,,0.53,0.0,WeatherDisplay:10.37,2013-09-22 03:15:00,
2013-09-21 23:20:00,58.4,50.5,29.84,NNW,343,5.8,5.8,75,0.00,BKN,,0.53,0.0,WeatherDisplay:10.37,2013-09-22 03:20:00,
2013-09-21 23:25:00,58.2,50.7,29.84,North,355,3.5,3.5,76,0.00,BKN,,0.53,0.0,WeatherDisplay:10.37,2013-09-22 03:25:00,
2013-09-21 23:30:00,58.0,50.8,29.85,NNW,340,3.5,3.5,77,0.00,BKN,,0.53,0.0,WeatherDisplay:10.37,2013-09-22 03:30:00,
2013-09-21 23:35:00,57.8,50.6,29.85,NE,34,5.0,5.0,77,0.00,BKN,,0.53,0.0,WeatherDisplay:10.37,2013-09-22 03:35:00,
2013-09-21 23:40:00,57.8,50.6,29.85,North,10,10.4,10.4,77,0.00,BKN,,0.53,0.0,WeatherDisplay:10.37,2013-09-22 03:40:00,
2013-09-21 23:45:00,57.7,50.2,29.85,NNW,348,9.2,9.2,76,0.00,BKN,,0.53,0.0,WeatherDisplay:10.37,2013-09-22 03:45:00,
2013-09-21 23:50:00,57.7,50.2,29.85,North,5,8.1,8.1,76,0.00,BKN,,0.53,0.0,WeatherDisplay:10.37,2013-09-22 03:50:00,
2013-09-21 23:55:00,57.6,50.1,29.85,North,9,6.9,6.9,76,0.00,BKN,,0.53,0.0,WeatherDisplay:10.37,2013-09-22 03:55:00,